Skip Navigation Links Skip Navigation Links

Current Weather

Agadir Al Massira, Morocco

For information only: do not use for flight planning or navigation.
Latest weather
Observation time Monday, July 23, 2018 2:00 PM WEST
Local time Monday, July 23, 2018 2:10 PM WEST
Flight conditions Visual Meteorological Conditions
Winds
Wind direction West-Southwest (240°)
Wind speed 12 mph
Visibility 6.2 mi.
Sky condition
Ceiling unlimited
Sky clear
Temperature 82°F
Dewpoint 61°F
Altimeter 29.94 in.Hg
Derived measurements
Relative humidity 48%
Heat index 83°F
Density altitude 1964 ft.
Remarks
Corrected report.
Ceiling and visibility OK.
No significant changes expected in the next two hours.
METAR COR GMAD 231300Z 24010KT CAVOK 28/16 Q1014 NOSIG

Settings

Location code

InnerDrive.Weather 4.0.6770.0 Release CLR 4.0.30319.42000
Copyright ©2018 Inner Drive Technology. All rights reserved. Portions Copyright ©1986-2018 David Braverman.

Find weather

Site navigation


Skip Navigation Links

Place info

Page info

PayPal - The safer, easier way to pay online!

Return home.

Copyright ©2018 Inner Drive Technology. Purveyors of fine, hand-crafted computer software. Page printed 2018-07-23T13:10:00 UTC.